createdAt,value
2023-02-16T00:00:46.294Z,18.63
2023-02-16T00:05:48.164Z,16.03
2023-02-16T00:11:09.678Z,16.90
2023-02-16T00:16:13.284Z,16.50
2023-02-16T00:21:15.200Z,16.77
2023-02-16T00:26:19.290Z,17.40
2023-02-16T00:31:23.313Z,16.83
2023-02-16T00:36:25.739Z,16.87
2023-02-16T00:41:51.801Z,17.50
2023-02-16T00:46:53.520Z,18.10
2023-02-16T00:51:55.235Z,16.27
2023-02-16T00:56:58.243Z,16.50
2023-02-16T01:01:59.903Z,17.60
2023-02-16T01:07:20.155Z,18.33
2023-02-16T01:12:23.194Z,18.00
2023-02-16T01:17:25.021Z,18.00
2023-02-16T01:22:33.311Z,18.10
2023-02-16T01:27:37.241Z,19.23
2023-02-16T01:32:39.006Z,18.20
2023-02-16T01:37:42.600Z,19.47
2023-02-16T01:42:47.994Z,19.07
2023-02-16T01:47:51.551Z,19.33
2023-02-16T01:52:54.821Z,18.80
2023-02-16T01:57:59.680Z,18.70
2023-02-16T02:03:20.456Z,20.07
2023-02-16T02:08:25.450Z,20.20
2023-02-16T02:13:29.414Z,19.83
2023-02-16T02:18:31.348Z,20.67
2023-02-16T02:23:45.095Z,21.57
2023-02-16T02:28:51.698Z,21.35
2023-02-16T02:34:01.898Z,22.00
2023-02-16T02:39:10.113Z,19.83
2023-02-16T02:44:13.288Z,21.03
2023-02-16T02:49:15.444Z,22.00
2023-02-16T02:54:38.753Z,22.30
2023-02-16T03:00:06.042Z,21.93
2023-02-16T03:05:08.505Z,22.87
2023-02-16T03:10:29.923Z,22.30
2023-02-16T03:15:33.014Z,23.70
2023-02-16T03:20:53.346Z,22.50
2023-02-16T03:26:13.702Z,22.70
2023-02-16T03:31:20.409Z,23.00
2023-02-16T03:36:22.293Z,24.73
2023-02-16T03:41:24.088Z,25.77
2023-02-16T03:46:27.181Z,26.47
2023-02-16T03:51:28.868Z,24.73
2023-02-16T03:56:30.585Z,25.73
2023-02-16T04:01:33.665Z,27.30
2023-02-16T04:06:35.347Z,25.60
2023-02-16T04:11:55.570Z,27.63
2023-02-16T04:16:58.593Z,27.90
2023-02-16T04:22:00.310Z,28.80
2023-02-16T04:27:02.017Z,29.43
2023-02-16T04:32:05.191Z,31.77
2023-02-16T04:37:06.985Z,27.95
2023-02-16T04:42:08.672Z,29.40
2023-02-16T04:47:11.761Z,30.17
2023-02-16T04:52:13.659Z,31.40
2023-02-16T04:57:15.642Z,30.07
2023-02-16T05:02:18.709Z,31.03
2023-02-16T05:07:20.377Z,32.03
2023-02-16T05:12:40.944Z,30.80
2023-02-16T05:17:44.023Z,32.03
2023-02-16T05:22:46.283Z,32.23
2023-02-16T05:27:48.008Z,30.20
2023-02-16T05:32:51.049Z,31.93
2023-02-16T05:37:52.733Z,31.67
2023-02-16T05:42:54.433Z,32.37
2023-02-16T05:47:57.529Z,35.03
2023-02-16T05:52:59.626Z,33.97
2023-02-16T05:58:01.397Z,33.07
2023-02-16T06:03:04.499Z,33.00
2023-02-16T06:08:06.171Z,33.23
2023-02-16T06:13:07.823Z,32.70
2023-02-16T06:18:11.376Z,33.50
2023-02-16T06:23:13.247Z,32.93
2023-02-16T06:28:14.919Z,35.00
2023-02-16T06:33:17.948Z,33.00
2023-02-16T06:38:19.629Z,30.10
2023-02-16T06:43:21.423Z,33.30
2023-02-16T06:48:24.502Z,32.70
2023-02-16T06:53:44.884Z,31.17
2023-02-16T06:58:46.566Z,31.00
2023-02-16T07:03:49.985Z,29.25
2023-02-16T07:08:51.630Z,31.10
2023-02-16T07:14:11.866Z,28.67
2023-02-16T07:19:14.903Z,30.40
2023-02-16T07:24:16.878Z,30.53
2023-02-16T07:29:18.820Z,30.50
2023-02-16T07:34:22.136Z,28.30
2023-02-16T07:39:23.970Z,31.17
2023-02-16T07:44:26.010Z,30.20
2023-02-16T07:49:29.038Z,30.83
2023-02-16T07:54:31.190Z,30.20
2023-02-16T07:59:32.831Z,29.90
2023-02-16T08:04:35.893Z,29.77
2023-02-16T08:09:37.606Z,29.10
2023-02-16T08:14:39.532Z,28.10
2023-02-16T08:19:42.620Z,32.47
2023-02-16T08:24:44.324Z,31.37
2023-02-16T08:29:46.037Z,30.97
2023-02-16T08:34:49.694Z,30.17
2023-02-16T08:39:51.928Z,30.50
2023-02-16T08:44:54.523Z,29.30
2023-02-16T08:49:57.569Z,32.47
2023-02-16T08:54:59.273Z,29.13
2023-02-16T09:00:20.085Z,29.30
2023-02-16T09:05:23.186Z,28.10
2023-02-16T09:10:24.998Z,27.57
2023-02-16T09:15:26.733Z,27.83
2023-02-16T09:20:29.744Z,27.73
2023-02-16T09:25:33.859Z,26.63
2023-02-16T09:30:38.094Z,24.85
2023-02-16T09:35:41.130Z,24.77
2023-02-16T09:40:42.798Z,25.83
2023-02-16T09:45:47.571Z,24.13
2023-02-16T09:50:54.378Z,23.83
2023-02-16T09:56:03.162Z,23.67
2023-02-16T10:01:08.497Z,26.70
2023-02-16T10:06:25.029Z,26.53
2023-02-16T10:11:45.565Z,28.10
2023-02-16T10:16:51.680Z,27.30
2023-02-16T10:21:56.433Z,28.80
2023-02-16T10:27:02.180Z,27.90
2023-02-16T10:32:11.654Z,28.27
2023-02-16T10:37:35.282Z,29.70
2023-02-16T10:42:41.815Z,28.37
2023-02-16T10:47:44.060Z,28.43
2023-02-16T10:52:47.061Z,28.40
2023-02-16T10:57:54.287Z,29.60
2023-02-16T11:02:55.987Z,29.80
2023-02-16T11:08:02.810Z,30.40
2023-02-16T11:13:04.495Z,27.03
2023-02-16T11:18:08.075Z,29.03
2023-02-16T11:23:15.400Z,29.03
2023-02-16T11:28:17.072Z,26.90
2023-02-16T11:33:20.931Z,26.92
2023-02-16T11:38:31.476Z,26.20
2023-02-16T11:43:35.197Z,27.87
2023-02-16T11:48:37.971Z,27.02
2023-02-16T11:53:42.512Z,28.83
2023-02-16T11:58:45.005Z,27.97
2023-02-16T12:03:59.967Z,27.07
2023-02-16T12:09:13.210Z,27.50
2023-02-16T12:14:22.366Z,28.40
2023-02-16T12:19:30.452Z,28.63
2023-02-16T12:24:40.410Z,27.27
2023-02-16T12:29:44.933Z,28.90
2023-02-16T12:34:54.059Z,27.67
2023-02-16T12:40:00.448Z,31.80
2023-02-16T12:45:04.375Z,31.23
2023-02-16T12:50:07.929Z,29.10
2023-02-16T12:55:18.902Z,27.50
2023-02-16T13:00:23.997Z,28.45
2023-02-16T13:05:28.420Z,28.47
2023-02-16T13:10:33.549Z,27.20
2023-02-16T13:15:37.061Z,27.50
2023-02-16T13:20:39.061Z,27.03
2023-02-16T13:25:53.272Z,26.77
2023-02-16T13:31:15.236Z,25.87
2023-02-16T13:36:29.498Z,26.50
2023-02-16T13:41:42.176Z,25.77
2023-02-16T13:46:46.650Z,26.30
2023-02-16T13:51:48.333Z,26.23
2023-02-16T13:56:51.477Z,25.20
2023-02-16T14:01:54.260Z,27.03
2023-02-16T14:07:20.464Z,25.87
2023-02-16T14:12:26.717Z,25.17
2023-02-16T14:17:30.385Z,24.47
2023-02-16T14:22:35.255Z,28.07
2023-02-16T14:27:43.806Z,22.70
2023-02-16T14:32:46.422Z,24.47
2023-02-16T14:37:53.246Z,24.20
2023-02-16T14:42:57.784Z,24.63
2023-02-16T14:48:05.131Z,23.73
2023-02-16T14:53:21.589Z,23.80
2023-02-16T14:58:29.162Z,21.37
2023-02-16T15:03:39.720Z,21.83
2023-02-16T15:08:48.609Z,21.07
2023-02-16T15:13:53.350Z,22.17
2023-02-16T15:18:55.846Z,21.73
2023-02-16T15:23:58.313Z,21.17
2023-02-16T15:29:02.266Z,20.53
2023-02-16T15:34:05.631Z,22.03
2023-02-16T15:39:07.930Z,20.10
2023-02-16T15:44:27.830Z,20.03
2023-02-16T15:49:34.718Z,20.40
2023-02-16T15:54:37.026Z,20.20
2023-02-16T15:59:41.067Z,24.67
2023-02-16T16:04:43.830Z,32.63
2023-02-16T16:09:45.894Z,28.87
2023-02-16T16:14:51.481Z,26.20
2023-02-16T16:19:53.170Z,21.00
2023-02-16T16:24:54.887Z,21.95
2023-02-16T16:30:15.345Z,22.60
2023-02-16T16:35:21.330Z,20.97
2023-02-16T16:40:25.402Z,21.73
2023-02-16T16:45:36.348Z,21.13
2023-02-16T16:50:39.792Z,20.10
2023-02-16T16:55:41.638Z,20.95
2023-02-16T17:00:44.741Z,19.77
2023-02-16T17:05:46.575Z,21.37
2023-02-16T17:10:48.329Z,19.70
2023-02-16T17:15:53.990Z,21.07
2023-02-16T17:20:55.672Z,20.30
2023-02-16T17:25:57.395Z,20.17
2023-02-16T17:31:00.464Z,21.83
2023-02-16T17:36:03.074Z,20.80
2023-02-16T17:41:05.089Z,21.37
2023-02-16T17:46:08.378Z,20.70
2023-02-16T17:51:13.606Z,21.17
2023-02-16T17:56:16.443Z,21.50
2023-02-16T18:01:19.872Z,21.40
2023-02-16T18:06:24.405Z,22.07
2023-02-16T18:11:26.224Z,21.87
2023-02-16T18:16:29.283Z,26.10
2023-02-16T18:21:31.075Z,24.37
2023-02-16T18:26:33.693Z,22.63
2023-02-16T18:31:36.762Z,23.05
2023-02-16T18:36:38.673Z,22.70
2023-02-16T18:41:40.348Z,24.53
2023-02-16T18:46:43.454Z,32.80
2023-02-16T18:51:45.337Z,27.63
2023-02-16T18:56:47.731Z,26.77
2023-02-16T19:01:56.069Z,23.90
2023-02-16T19:06:58.417Z,23.47
2023-02-16T19:12:00.057Z,35.27
2023-02-16T19:17:03.280Z,38.87
2023-02-16T19:22:05.080Z,25.80
2023-02-16T19:27:06.788Z,23.70
2023-02-16T19:32:09.848Z,24.10
2023-02-16T19:37:11.606Z,23.67
2023-02-16T19:42:13.351Z,25.90
2023-02-16T19:47:16.462Z,23.00
2023-02-16T19:52:18.204Z,25.70
2023-02-16T19:57:19.956Z,27.67
2023-02-16T20:02:23.103Z,24.90
2023-02-16T20:07:25.009Z,34.93
2023-02-16T20:12:28.510Z,41.77
2023-02-16T20:17:31.528Z,30.13
2023-02-16T20:22:33.277Z,26.50
2023-02-16T20:27:35.042Z,26.50
2023-02-16T20:32:38.260Z,25.67
2023-02-16T20:37:39.995Z,25.70
2023-02-16T20:42:41.778Z,26.55
2023-02-16T20:47:44.927Z,25.67
2023-02-16T20:52:46.755Z,27.30
2023-02-16T20:57:48.464Z,28.93
2023-02-16T21:02:51.717Z,27.95
2023-02-16T21:07:53.514Z,27.40
2023-02-16T21:12:55.835Z,28.70
2023-02-16T21:17:59.216Z,29.20
2023-02-16T21:23:03.499Z,30.10
2023-02-16T21:28:05.221Z,30.83
2023-02-16T21:33:08.262Z,29.10
2023-02-16T21:38:09.946Z,30.80
2023-02-16T21:43:12.100Z,29.50
2023-02-16T21:48:33.501Z,30.03
2023-02-16T21:53:35.271Z,32.60
2023-02-16T21:58:36.949Z,35.70
2023-02-16T22:03:40.063Z,42.80
2023-02-16T22:08:41.841Z,30.17
2023-02-16T22:13:43.656Z,30.67
2023-02-16T22:18:46.744Z,31.67
2023-02-16T22:23:48.422Z,34.40
2023-02-16T22:28:50.494Z,34.03
2023-02-16T22:33:56.207Z,33.13
2023-02-16T22:38:58.015Z,33.00
2023-02-16T22:44:00.000Z,32.30
2023-02-16T22:49:03.088Z,32.30
2023-02-16T22:54:04.971Z,31.63
2023-02-16T22:59:06.931Z,29.10
2023-02-16T23:04:13.135Z,30.80
2023-02-16T23:09:16.099Z,32.93
2023-02-16T23:14:18.088Z,30.87
2023-02-16T23:19:24.121Z,32.30
2023-02-16T23:24:25.953Z,30.93
2023-02-16T23:29:27.770Z,32.27
2023-02-16T23:34:30.786Z,31.73
2023-02-16T23:39:32.446Z,31.63
2023-02-16T23:44:34.430Z,30.03
2023-02-16T23:49:37.434Z,31.23
2023-02-16T23:54:39.117Z,30.80
2023-02-16T23:59:41.572Z,31.00
